sensor_id;sensor_type;location;lat;lon;timestamp;temperature;humidity
17859;DHT22;35426;30.698;104.050;2022-11-04T00:00:52;15.90;99.90
17859;DHT22;35426;30.698;104.050;2022-11-04T00:03:27;15.90;99.90
17859;DHT22;35426;30.698;104.050;2022-11-04T00:06:03;15.80;99.90
17859;DHT22;35426;30.698;104.050;2022-11-04T00:08:38;15.80;99.90
17859;DHT22;35426;30.698;104.050;2022-11-04T00:11:12;15.80;99.90
17859;DHT22;35426;30.698;104.050;2022-11-04T00:14:01;15.70;99.90
17859;DHT22;35426;30.698;104.050;2022-11-04T00:16:36;15.60;99.90
17859;DHT22;35426;30.698;104.050;2022-11-04T00:19:26;15.80;99.90
17859;DHT22;35426;30.698;104.050;2022-11-04T00:22:22;15.90;99.90
17859;DHT22;35426;30.698;104.050;2022-11-04T00:25:12;16.00;99.90
17859;DHT22;35426;30.698;104.050;2022-11-04T00:28:07;16.00;99.90
17859;DHT22;35426;30.698;104.050;2022-11-04T00:31:00;15.90;99.90
17859;DHT22;35426;30.698;104.050;2022-11-04T00:33:54;16.00;99.90
17859;DHT22;35426;30.698;104.050;2022-11-04T00:36:28;16.10;99.90
17859;DHT22;35426;30.698;104.050;2022-11-04T00:39:05;16.10;99.90
17859;DHT22;35426;30.698;104.050;2022-11-04T00:41:39;16.20;99.90
17859;DHT22;35426;30.698;104.050;2022-11-04T00:44:12;16.20;99.90
17859;DHT22;35426;30.698;104.050;2022-11-04T00:46:46;16.20;99.90
17859;DHT22;35426;30.698;104.050;2022-11-04T00:49:19;16.10;99.90
17859;DHT22;35426;30.698;104.050;2022-11-04T00:51:53;16.10;99.90
17859;DHT22;35426;30.698;104.050;2022-11-04T00:54:28;16.10;99.90
17859;DHT22;35426;30.698;104.050;2022-11-04T00:57:03;16.20;99.90
17859;DHT22;35426;30.698;104.050;2022-11-04T00:59:36;16.20;99.90
17859;DHT22;35426;30.698;104.050;2022-11-04T01:02:11;16.20;99.90
17859;DHT22;35426;30.698;104.050;2022-11-04T01:04:47;16.10;99.90
17859;DHT22;35426;30.698;104.050;2022-11-04T01:07:21;16.20;99.90
17859;DHT22;35426;30.698;104.050;2022-11-04T01:09:57;16.10;99.90
17859;DHT22;35426;30.698;104.050;2022-11-04T01:12:32;16.20;99.90
17859;DHT22;35426;30.698;104.050;2022-11-04T01:15:07;16.20;99.90
17859;DHT22;35426;30.698;104.050;2022-11-04T01:17:40;16.20;99.90
17859;DHT22;35426;30.698;104.050;2022-11-04T01:20:17;16.20;99.90
17859;DHT22;35426;30.698;104.050;2022-11-04T01:22:51;16.30;99.90
17859;DHT22;35426;30.698;104.050;2022-11-04T01:25:28;16.40;99.90
17859;DHT22;35426;30.698;104.050;2022-11-04T01:28:02;16.50;99.90
17859;DHT22;35426;30.698;104.050;2022-11-04T01:30:38;16.50;99.90
17859;DHT22;35426;30.698;104.050;2022-11-04T01:33:12;16.40;99.90
17859;DHT22;35426;30.698;104.050;2022-11-04T01:35:47;16.40;99.90
17859;DHT22;35426;30.698;104.050;2022-11-04T01:38:20;16.40;99.90
17859;DHT22;35426;30.698;104.050;2022-11-04T01:40:56;16.40;99.90
17859;DHT22;35426;30.698;104.050;2022-11-04T01:43:47;16.60;99.90
17859;DHT22;35426;30.698;104.050;2022-11-04T01:46:30;16.60;99.90
17859;DHT22;35426;30.698;104.050;2022-11-04T01:49:22;16.60;99.90
17859;DHT22;35426;30.698;104.050;2022-11-04T01:52:02;16.50;99.90
17859;DHT22;35426;30.698;104.050;2022-11-04T01:54:39;16.60;99.90
17859;DHT22;35426;30.698;104.050;2022-11-04T01:57:18;16.70;99.90
17859;DHT22;35426;30.698;104.050;2022-11-04T01:59:54;16.80;99.90
17859;DHT22;35426;30.698;104.050;2022-11-04T02:02:56;16.80;99.90
17859;DHT22;35426;30.698;104.050;2022-11-04T02:05:37;16.90;99.90
17859;DHT22;35426;30.698;104.050;2022-11-04T02:09:21;16.90;99.90
17859;DHT22;35426;30.698;104.050;2022-11-04T02:11:57;17.00;99.90
17859;DHT22;35426;30.698;104.050;2022-11-04T02:14:49;16.90;99.90
17859;DHT22;35426;30.698;104.050;2022-11-04T02:17:36;17.10;99.90
17859;DHT22;35426;30.698;104.050;2022-11-04T02:20:28;17.10;99.90
17859;DHT22;35426;30.698;104.050;2022-11-04T02:23:48;17.10;99.90
17859;DHT22;35426;30.698;104.050;2022-11-04T02:26:43;17.10;99.90
17859;DHT22;35426;30.698;104.050;2022-11-04T02:32:40;17.10;99.90
17859;DHT22;35426;30.698;104.050;2022-11-04T02:35:22;17.10;99.90
17859;DHT22;35426;30.698;104.050;2022-11-04T02:38:07;17.10;99.90
17859;DHT22;35426;30.698;104.050;2022-11-04T02:40:53;17.10;99.90
17859;DHT22;35426;30.698;104.050;2022-11-04T02:43:34;17.20;99.90
17859;DHT22;35426;30.698;104.050;2022-11-04T02:46:17;17.30;99.90
17859;DHT22;35426;30.698;104.050;2022-11-04T02:48:57;17.30;99.90
17859;DHT22;35426;30.698;104.050;2022-11-04T02:51:34;17.40;99.90
17859;DHT22;35426;30.698;104.050;2022-11-04T02:54:16;17.50;99.90
17859;DHT22;35426;30.698;104.050;2022-11-04T02:56:52;17.60;99.90
17859;DHT22;35426;30.698;104.050;2022-11-04T03:02:29;17.40;99.90
17859;DHT22;35426;30.698;104.050;2022-11-04T03:05:08;17.40;99.90
17859;DHT22;35426;30.698;104.050;2022-11-04T03:07:44;17.30;99.90
17859;DHT22;35426;30.698;104.050;2022-11-04T03:10:21;17.50;99.90
17859;DHT22;35426;30.698;104.050;2022-11-04T03:13:15;17.60;99.90
17859;DHT22;35426;30.698;104.050;2022-11-04T03:15:52;17.60;99.90
17859;DHT22;35426;30.698;104.050;2022-11-04T03:18:35;17.60;99.90
17859;DHT22;35426;30.698;104.050;2022-11-04T03:21:12;17.80;99.90
17859;DHT22;35426;30.698;104.050;2022-11-04T03:23:47;17.80;99.90
17859;DHT22;35426;30.698;104.050;2022-11-04T03:26:22;17.90;99.90
17859;DHT22;35426;30.698;104.050;2022-11-04T03:29:09;17.80;99.90
17859;DHT22;35426;30.698;104.050;2022-11-04T03:31:48;18.10;99.90
17859;DHT22;35426;30.698;104.050;2022-11-04T03:34:25;18.20;99.90
17859;DHT22;35426;30.698;104.050;2022-11-04T03:37:00;18.20;99.90
17859;DHT22;35426;30.698;104.050;2022-11-04T03:39:36;18.40;99.90
17859;DHT22;35426;30.698;104.050;2022-11-04T03:42:11;18.50;99.90
17859;DHT22;35426;30.698;104.050;2022-11-04T03:44:55;18.50;99.90
17859;DHT22;35426;30.698;104.050;2022-11-04T03:47:30;18.40;99.90
17859;DHT22;35426;30.698;104.050;2022-11-04T03:50:10;18.60;99.90
17859;DHT22;35426;30.698;104.050;2022-11-04T03:52:45;18.60;99.90
17859;DHT22;35426;30.698;104.050;2022-11-04T03:55:19;18.30;99.90
17859;DHT22;35426;30.698;104.050;2022-11-04T03:57:56;18.50;99.90
17859;DHT22;35426;30.698;104.050;2022-11-04T04:00:40;18.60;99.90
17859;DHT22;35426;30.698;104.050;2022-11-04T04:03:19;18.40;99.90
17859;DHT22;35426;30.698;104.050;2022-11-04T04:05:58;18.30;99.90
17859;DHT22;35426;30.698;104.050;2022-11-04T04:08:38;18.20;99.90
17859;DHT22;35426;30.698;104.050;2022-11-04T04:11:18;18.10;99.90
17859;DHT22;35426;30.698;104.050;2022-11-04T04:13:56;18.00;99.90
17859;DHT22;35426;30.698;104.050;2022-11-04T04:16:36;17.80;99.90
17859;DHT22;35426;30.698;104.050;2022-11-04T04:19:13;17.80;99.90
17859;DHT22;35426;30.698;104.050;2022-11-04T04:21:54;17.80;99.90
17859;DHT22;35426;30.698;104.050;2022-11-04T04:24:34;17.90;99.90
17859;DHT22;35426;30.698;104.050;2022-11-04T04:27:26;18.00;99.90
17859;DHT22;35426;30.698;104.050;2022-11-04T04:30:06;18.00;99.90
17859;DHT22;35426;30.698;104.050;2022-11-04T04:32:44;18.00;99.90
17859;DHT22;35426;30.698;104.050;2022-11-04T04:35:26;18.20;99.90
17859;DHT22;35426;30.698;104.050;2022-11-04T04:38:20;18.20;99.90
17859;DHT22;35426;30.698;104.050;2022-11-04T04:41:12;18.10;99.90
17859;DHT22;35426;30.698;104.050;2022-11-04T04:44:11;18.30;99.90
17859;DHT22;35426;30.698;104.050;2022-11-04T04:47:03;18.10;99.90
17859;DHT22;35426;30.698;104.050;2022-11-04T04:49:50;18.00;99.90
17859;DHT22;35426;30.698;104.050;2022-11-04T04:52:25;18.10;99.90
17859;DHT22;35426;30.698;104.050;2022-11-04T04:55:01;18.30;99.90
17859;DHT22;35426;30.698;104.050;2022-11-04T04:57:34;18.30;99.90
17859;DHT22;35426;30.698;104.050;2022-11-04T05:00:14;18.40;99.90
17859;DHT22;35426;30.698;104.050;2022-11-04T05:02:49;18.70;99.90
17859;DHT22;35426;30.698;104.050;2022-11-04T05:05:23;18.60;99.90
17859;DHT22;35426;30.698;104.050;2022-11-04T05:08:04;18.60;99.90
17859;DHT22;35426;30.698;104.050;2022-11-04T05:10:41;18.70;99.90
17859;DHT22;35426;30.698;104.050;2022-11-04T05:13:16;18.60;99.90
17859;DHT22;35426;30.698;104.050;2022-11-04T05:16:05;18.70;99.90
17859;DHT22;35426;30.698;104.050;2022-11-04T05:18:40;19.10;99.90
17859;DHT22;35426;30.698;104.050;2022-11-04T05:21:15;19.30;99.90
17859;DHT22;35426;30.698;104.050;2022-11-04T05:23:49;19.30;99.90
17859;DHT22;35426;30.698;104.050;2022-11-04T05:26:25;19.40;99.90
17859;DHT22;35426;30.698;104.050;2022-11-04T05:29:01;19.40;99.90
17859;DHT22;35426;30.698;104.050;2022-11-04T05:31:35;19.30;99.90
17859;DHT22;35426;30.698;104.050;2022-11-04T05:34:10;19.10;99.90
17859;DHT22;35426;30.698;104.050;2022-11-04T05:36:45;19.20;99.90
17859;DHT22;35426;30.698;104.050;2022-11-04T05:39:19;19.40;99.90
17859;DHT22;35426;30.698;104.050;2022-11-04T05:41:56;19.40;99.90
17859;DHT22;35426;30.698;104.050;2022-11-04T05:44:31;19.30;99.90
17859;DHT22;35426;30.698;104.050;2022-11-04T05:47:06;19.10;99.90
17859;DHT22;35426;30.698;104.050;2022-11-04T05:49:40;19.20;99.90
17859;DHT22;35426;30.698;104.050;2022-11-04T05:52:15;19.20;99.90
17859;DHT22;35426;30.698;104.050;2022-11-04T05:54:50;19.10;99.90
17859;DHT22;35426;30.698;104.050;2022-11-04T05:57:26;19.20;99.90
17859;DHT22;35426;30.698;104.050;2022-11-04T06:00:01;19.60;99.90
17859;DHT22;35426;30.698;104.050;2022-11-04T06:02:35;19.90;99.90
17859;DHT22;35426;30.698;104.050;2022-11-04T06:05:09;20.00;99.90
17859;DHT22;35426;30.698;104.050;2022-11-04T06:07:44;20.10;99.90
17859;DHT22;35426;30.698;104.050;2022-11-04T06:10:18;20.40;99.90
17859;DHT22;35426;30.698;104.050;2022-11-04T06:12:55;20.30;99.90
17859;DHT22;35426;30.698;104.050;2022-11-04T06:15:30;20.20;99.90
17859;DHT22;35426;30.698;104.050;2022-11-04T06:18:06;19.90;99.90
17859;DHT22;35426;30.698;104.050;2022-11-04T06:20:40;19.80;99.90
17859;DHT22;35426;30.698;104.050;2022-11-04T06:23:14;19.80;99.90
17859;DHT22;35426;30.698;104.050;2022-11-04T06:25:53;20.20;99.90
17859;DHT22;35426;30.698;104.050;2022-11-04T06:28:30;20.50;99.90
17859;DHT22;35426;30.698;104.050;2022-11-04T06:31:06;20.70;99.90
17859;DHT22;35426;30.698;104.050;2022-11-04T06:33:40;20.70;99.90
17859;DHT22;35426;30.698;104.050;2022-11-04T06:36:15;20.80;99.90
17859;DHT22;35426;30.698;104.050;2022-11-04T06:38:49;20.90;99.90
17859;DHT22;35426;30.698;104.050;2022-11-04T06:41:31;20.70;99.90
17859;DHT22;35426;30.698;104.050;2022-11-04T06:44:07;20.80;99.90
17859;DHT22;35426;30.698;104.050;2022-11-04T06:46:42;20.60;99.90
17859;DHT22;35426;30.698;104.050;2022-11-04T06:49:19;20.70;99.90
17859;DHT22;35426;30.698;104.050;2022-11-04T06:51:53;20.70;99.90
17859;DHT22;35426;30.698;104.050;2022-11-04T06:54:28;20.70;99.90
17859;DHT22;35426;30.698;104.050;2022-11-04T06:57:03;20.50;99.90
17859;DHT22;35426;30.698;104.050;2022-11-04T06:59:40;20.40;99.90
17859;DHT22;35426;30.698;104.050;2022-11-04T07:02:15;20.10;99.90
17859;DHT22;35426;30.698;104.050;2022-11-04T07:04:49;19.80;99.90
17859;DHT22;35426;30.698;104.050;2022-11-04T07:07:23;19.80;99.90
17859;DHT22;35426;30.698;104.050;2022-11-04T07:09:59;20.00;99.90
17859;DHT22;35426;30.698;104.050;2022-11-04T07:12:33;19.80;99.90
17859;DHT22;35426;30.698;104.050;2022-11-04T07:15:10;19.80;99.90
17859;DHT22;35426;30.698;104.050;2022-11-04T07:17:45;19.90;99.90
17859;DHT22;35426;30.698;104.050;2022-11-04T07:20:20;19.80;99.90
17859;DHT22;35426;30.698;104.050;2022-11-04T07:22:55;19.90;99.90
17859;DHT22;35426;30.698;104.050;2022-11-04T07:25:31;19.90;99.90
17859;DHT22;35426;30.698;104.050;2022-11-04T07:28:04;19.70;99.90
17859;DHT22;35426;30.698;104.050;2022-11-04T07:30:41;19.90;99.90
17859;DHT22;35426;30.698;104.050;2022-11-04T07:33:14;19.90;99.90
17859;DHT22;35426;30.698;104.050;2022-11-04T07:35:49;20.00;99.90
17859;DHT22;35426;30.698;104.050;2022-11-04T07:38:26;20.50;99.90
17859;DHT22;35426;30.698;104.050;2022-11-04T07:41:01;20.50;99.90
17859;DHT22;35426;30.698;104.050;2022-11-04T07:43:36;20.60;99.90
17859;DHT22;35426;30.698;104.050;2022-11-04T07:46:13;20.50;99.90
17859;DHT22;35426;30.698;104.050;2022-11-04T07:48:48;20.30;99.90
17859;DHT22;35426;30.698;104.050;2022-11-04T07:51:23;20.10;99.90
17859;DHT22;35426;30.698;104.050;2022-11-04T07:53:58;20.10;99.90
17859;DHT22;35426;30.698;104.050;2022-11-04T07:56:32;19.80;99.90
17859;DHT22;35426;30.698;104.050;2022-11-04T07:59:07;19.50;99.90
17859;DHT22;35426;30.698;104.050;2022-11-04T08:01:44;19.40;99.90
17859;DHT22;35426;30.698;104.050;2022-11-04T08:04:20;19.30;99.90
17859;DHT22;35426;30.698;104.050;2022-11-04T08:06:54;19.50;99.90
17859;DHT22;35426;30.698;104.050;2022-11-04T08:09:29;19.60;99.90
17859;DHT22;35426;30.698;104.050;2022-11-04T08:12:03;19.70;99.90
17859;DHT22;35426;30.698;104.050;2022-11-04T08:14:37;19.80;99.90
17859;DHT22;35426;30.698;104.050;2022-11-04T08:17:14;19.80;99.90
17859;DHT22;35426;30.698;104.050;2022-11-04T08:19:48;19.70;99.90
17859;DHT22;35426;30.698;104.050;2022-11-04T08:22:21;19.60;99.90
17859;DHT22;35426;30.698;104.050;2022-11-04T08:25:01;19.60;99.90
17859;DHT22;35426;30.698;104.050;2022-11-04T08:27:56;19.50;99.90
17859;DHT22;35426;30.698;104.050;2022-11-04T08:30:54;19.40;99.90
17859;DHT22;35426;30.698;104.050;2022-11-04T08:33:31;19.40;99.90
17859;DHT22;35426;30.698;104.050;2022-11-04T08:36:17;19.20;99.90
17859;DHT22;35426;30.698;104.050;2022-11-04T08:38:53;19.00;99.90
17859;DHT22;35426;30.698;104.050;2022-11-04T08:41:28;19.20;99.90
17859;DHT22;35426;30.698;104.050;2022-11-04T08:44:03;19.00;99.90
17859;DHT22;35426;30.698;104.050;2022-11-04T08:46:38;18.90;99.90
17859;DHT22;35426;30.698;104.050;2022-11-04T08:49:16;18.90;99.90
17859;DHT22;35426;30.698;104.050;2022-11-04T08:52:05;18.90;99.90
17859;DHT22;35426;30.698;104.050;2022-11-04T08:54:41;18.90;99.90
17859;DHT22;35426;30.698;104.050;2022-11-04T08:57:20;18.90;99.90
17859;DHT22;35426;30.698;104.050;2022-11-04T08:59:54;18.90;99.90
17859;DHT22;35426;30.698;104.050;2022-11-04T09:02:28;19.00;99.90
17859;DHT22;35426;30.698;104.050;2022-11-04T09:05:03;19.00;99.90
17859;DHT22;35426;30.698;104.050;2022-11-04T09:07:38;18.90;99.90
17859;DHT22;35426;30.698;104.050;2022-11-04T09:10:12;18.80;99.90
17859;DHT22;35426;30.698;104.050;2022-11-04T09:12:46;18.80;99.90
17859;DHT22;35426;30.698;104.050;2022-11-04T09:15:19;18.90;99.90
17859;DHT22;35426;30.698;104.050;2022-11-04T09:17:54;18.80;99.90
17859;DHT22;35426;30.698;104.050;2022-11-04T09:20:32;18.80;99.90
17859;DHT22;35426;30.698;104.050;2022-11-04T09:23:09;18.70;99.90
17859;DHT22;35426;30.698;104.050;2022-11-04T09:25:44;18.70;99.90
17859;DHT22;35426;30.698;104.050;2022-11-04T09:28:18;18.60;99.90
17859;DHT22;35426;30.698;104.050;2022-11-04T09:30:53;18.70;99.90
17859;DHT22;35426;30.698;104.050;2022-11-04T09:33:27;18.70;99.90
17859;DHT22;35426;30.698;104.050;2022-11-04T09:36:03;18.80;99.90
17859;DHT22;35426;30.698;104.050;2022-11-04T09:38:38;18.80;99.90
17859;DHT22;35426;30.698;104.050;2022-11-04T09:41:33;18.70;99.90
17859;DHT22;35426;30.698;104.050;2022-11-04T09:44:22;18.80;99.90
17859;DHT22;35426;30.698;104.050;2022-11-04T09:46:59;18.70;99.90
17859;DHT22;35426;30.698;104.050;2022-11-04T09:49:36;18.60;99.90
17859;DHT22;35426;30.698;104.050;2022-11-04T09:52:20;18.60;99.90
17859;DHT22;35426;30.698;104.050;2022-11-04T09:54:57;18.50;99.90
17859;DHT22;35426;30.698;104.050;2022-11-04T09:57:32;18.50;99.90
17859;DHT22;35426;30.698;104.050;2022-11-04T10:00:13;18.50;99.90
17859;DHT22;35426;30.698;104.050;2022-11-04T10:02:56;18.50;99.90
17859;DHT22;35426;30.698;104.050;2022-11-04T10:05:43;18.50;99.90
17859;DHT22;35426;30.698;104.050;2022-11-04T10:08:49;18.50;99.90
17859;DHT22;35426;30.698;104.050;2022-11-04T10:11:35;18.50;99.90
17859;DHT22;35426;30.698;104.050;2022-11-04T10:14:30;18.50;99.90
17859;DHT22;35426;30.698;104.050;2022-11-04T10:17:26;18.40;99.90
17859;DHT22;35426;30.698;104.050;2022-11-04T10:20:18;18.50;99.90
17859;DHT22;35426;30.698;104.050;2022-11-04T10:22:57;18.40;99.90
17859;DHT22;35426;30.698;104.050;2022-11-04T10:25:39;18.30;99.90
17859;DHT22;35426;30.698;104.050;2022-11-04T10:28:18;18.40;99.90
17859;DHT22;35426;30.698;104.050;2022-11-04T10:30:52;18.30;99.90
17859;DHT22;35426;30.698;104.050;2022-11-04T10:33:30;18.40;99.90
17859;DHT22;35426;30.698;104.050;2022-11-04T10:36:08;18.30;99.90
17859;DHT22;35426;30.698;104.050;2022-11-04T10:38:47;18.30;99.90
17859;DHT22;35426;30.698;104.050;2022-11-04T10:41:31;18.30;99.90
17859;DHT22;35426;30.698;104.050;2022-11-04T10:44:10;18.30;99.90
17859;DHT22;35426;30.698;104.050;2022-11-04T10:46:54;18.30;99.90
17859;DHT22;35426;30.698;104.050;2022-11-04T10:49:50;18.30;99.90
17859;DHT22;35426;30.698;104.050;2022-11-04T10:52:47;18.30;99.90
17859;DHT22;35426;30.698;104.050;2022-11-04T10:55:29;18.40;99.90
17859;DHT22;35426;30.698;104.050;2022-11-04T10:58:14;18.30;99.90
17859;DHT22;35426;30.698;104.050;2022-11-04T11:00:48;18.30;99.90
17859;DHT22;35426;30.698;104.050;2022-11-04T11:03:29;18.30;99.90
17859;DHT22;35426;30.698;104.050;2022-11-04T11:06:23;18.30;99.90
17859;DHT22;35426;30.698;104.050;2022-11-04T11:09:00;18.30;99.90
17859;DHT22;35426;30.698;104.050;2022-11-04T11:11:46;18.30;99.90
17859;DHT22;35426;30.698;104.050;2022-11-04T11:14:32;18.30;99.90
17859;DHT22;35426;30.698;104.050;2022-11-04T11:17:23;18.30;99.90
17859;DHT22;35426;30.698;104.050;2022-11-04T11:19:59;18.30;99.90
17859;DHT22;35426;30.698;104.050;2022-11-04T11:22:37;18.30;99.90
17859;DHT22;35426;30.698;104.050;2022-11-04T11:25:21;18.30;99.90
17859;DHT22;35426;30.698;104.050;2022-11-04T11:27:59;18.30;99.90
17859;DHT22;35426;30.698;104.050;2022-11-04T11:30:39;18.30;99.90
17859;DHT22;35426;30.698;104.050;2022-11-04T11:33:29;18.20;99.90
17859;DHT22;35426;30.698;104.050;2022-11-04T11:36:05;18.20;99.90
17859;DHT22;35426;30.698;104.050;2022-11-04T11:38:54;18.10;99.90
17859;DHT22;35426;30.698;104.050;2022-11-04T11:41:31;18.10;99.90
17859;DHT22;35426;30.698;104.050;2022-11-04T11:44:23;18.10;99.90
17859;DHT22;35426;30.698;104.050;2022-11-04T11:47:02;18.20;99.90
17859;DHT22;35426;30.698;104.050;2022-11-04T11:49:36;18.10;99.90
17859;DHT22;35426;30.698;104.050;2022-11-04T11:52:32;18.10;99.90
17859;DHT22;35426;30.698;104.050;2022-11-04T11:55:11;18.20;99.90
17859;DHT22;35426;30.698;104.050;2022-11-04T11:57:56;18.20;99.90
17859;DHT22;35426;30.698;104.050;2022-11-04T12:00:58;18.20;99.90
17859;DHT22;35426;30.698;104.050;2022-11-04T12:03:47;18.20;99.90
17859;DHT22;35426;30.698;104.050;2022-11-04T12:06:50;18.10;99.90
17859;DHT22;35426;30.698;104.050;2022-11-04T12:09:51;18.10;99.90
17859;DHT22;35426;30.698;104.050;2022-11-04T12:12:46;18.10;99.90
17859;DHT22;35426;30.698;104.050;2022-11-04T12:15:40;18.20;99.90
17859;DHT22;35426;30.698;104.050;2022-11-04T12:18:31;18.10;99.90
17859;DHT22;35426;30.698;104.050;2022-11-04T12:21:12;18.10;99.90
17859;DHT22;35426;30.698;104.050;2022-11-04T12:23:54;18.10;99.90
17859;DHT22;35426;30.698;104.050;2022-11-04T12:26:36;18.10;99.90
17859;DHT22;35426;30.698;104.050;2022-11-04T12:29:27;18.10;99.90
17859;DHT22;35426;30.698;104.050;2022-11-04T12:32:15;18.10;99.90
17859;DHT22;35426;30.698;104.050;2022-11-04T12:35:00;18.00;99.90
17859;DHT22;35426;30.698;104.050;2022-11-04T12:37:56;18.10;99.90
17859;DHT22;35426;30.698;104.050;2022-11-04T12:40:43;18.00;99.90
17859;DHT22;35426;30.698;104.050;2022-11-04T12:43:42;18.00;99.90
17859;DHT22;35426;30.698;104.050;2022-11-04T12:46:24;18.00;99.90
17859;DHT22;35426;30.698;104.050;2022-11-04T12:49:31;18.10;99.90
17859;DHT22;35426;30.698;104.050;2022-11-04T12:52:14;18.10;99.90
17859;DHT22;35426;30.698;104.050;2022-11-04T12:55:01;18.00;99.90
17859;DHT22;35426;30.698;104.050;2022-11-04T12:57:43;18.00;99.90
17859;DHT22;35426;30.698;104.050;2022-11-04T13:00:20;18.00;99.90
17859;DHT22;35426;30.698;104.050;2022-11-04T13:03:03;18.00;99.90
17859;DHT22;35426;30.698;104.050;2022-11-04T13:05:43;18.00;99.90
17859;DHT22;35426;30.698;104.050;2022-11-04T13:08:27;18.00;99.90
17859;DHT22;35426;30.698;104.050;2022-11-04T13:11:09;18.00;99.90
17859;DHT22;35426;30.698;104.050;2022-11-04T13:14:01;17.90;99.90
17859;DHT22;35426;30.698;104.050;2022-11-04T13:16:39;17.90;99.90
17859;DHT22;35426;30.698;104.050;2022-11-04T13:19:22;17.90;99.90
17859;DHT22;35426;30.698;104.050;2022-11-04T13:22:04;17.90;99.90
17859;DHT22;35426;30.698;104.050;2022-11-04T13:24:48;17.90;99.90
17859;DHT22;35426;30.698;104.050;2022-11-04T13:27:31;17.90;99.90
17859;DHT22;35426;30.698;104.050;2022-11-04T13:30:17;17.90;99.90
17859;DHT22;35426;30.698;104.050;2022-11-04T13:32:57;17.80;99.90
17859;DHT22;35426;30.698;104.050;2022-11-04T13:35:39;17.90;99.90
17859;DHT22;35426;30.698;104.050;2022-11-04T13:38:21;17.80;99.90
17859;DHT22;35426;30.698;104.050;2022-11-04T13:41:10;17.80;99.90
17859;DHT22;35426;30.698;104.050;2022-11-04T13:43:54;17.70;99.90
17859;DHT22;35426;30.698;104.050;2022-11-04T13:46:31;17.80;99.90
17859;DHT22;35426;30.698;104.050;2022-11-04T13:49:18;17.70;99.90
17859;DHT22;35426;30.698;104.050;2022-11-04T13:52:04;17.70;99.90
17859;DHT22;35426;30.698;104.050;2022-11-04T13:54:42;17.60;99.90
17859;DHT22;35426;30.698;104.050;2022-11-04T13:57:20;17.60;99.90
17859;DHT22;35426;30.698;104.050;2022-11-04T14:00:24;17.60;99.90
17859;DHT22;35426;30.698;104.050;2022-11-04T14:02:58;17.60;99.90
17859;DHT22;35426;30.698;104.050;2022-11-04T14:06:00;17.60;99.90
17859;DHT22;35426;30.698;104.050;2022-11-04T14:08:35;17.50;99.90
17859;DHT22;35426;30.698;104.050;2022-11-04T14:11:13;17.50;99.90
17859;DHT22;35426;30.698;104.050;2022-11-04T14:14:00;17.50;99.90
17859;DHT22;35426;30.698;104.050;2022-11-04T14:16:43;17.50;99.90
17859;DHT22;35426;30.698;104.050;2022-11-04T14:20:01;17.60;99.90
17859;DHT22;35426;30.698;104.050;2022-11-04T14:22:52;17.60;99.90
17859;DHT22;35426;30.698;104.050;2022-11-04T14:25:30;17.60;99.90
17859;DHT22;35426;30.698;104.050;2022-11-04T14:28:26;17.50;99.90
17859;DHT22;35426;30.698;104.050;2022-11-04T14:31:04;17.40;99.90
17859;DHT22;35426;30.698;104.050;2022-11-04T14:33:55;17.30;99.90
17859;DHT22;35426;30.698;104.050;2022-11-04T14:36:39;17.30;99.90
17859;DHT22;35426;30.698;104.050;2022-11-04T14:39:23;17.30;99.90
17859;DHT22;35426;30.698;104.050;2022-11-04T14:42:02;17.30;99.90
17859;DHT22;35426;30.698;104.050;2022-11-04T14:44:42;17.40;99.90
17859;DHT22;35426;30.698;104.050;2022-11-04T14:47:21;17.40;99.90
17859;DHT22;35426;30.698;104.050;2022-11-04T14:50:05;17.30;99.90
17859;DHT22;35426;30.698;104.050;2022-11-04T14:52:47;17.30;99.90
17859;DHT22;35426;30.698;104.050;2022-11-04T14:55:26;17.30;99.90
17859;DHT22;35426;30.698;104.050;2022-11-04T14:58:21;17.20;99.90
17859;DHT22;35426;30.698;104.050;2022-11-04T15:00:59;17.30;99.90
17859;DHT22;35426;30.698;104.050;2022-11-04T15:03:37;17.20;99.90
17859;DHT22;35426;30.698;104.050;2022-11-04T15:06:36;17.20;99.90
17859;DHT22;35426;30.698;104.050;2022-11-04T15:09:28;17.30;99.90
17859;DHT22;35426;30.698;104.050;2022-11-04T15:12:10;17.30;99.90
17859;DHT22;35426;30.698;104.050;2022-11-04T15:15:00;17.10;99.90
17859;DHT22;35426;30.698;104.050;2022-11-04T15:17:37;17.10;99.90
17859;DHT22;35426;30.698;104.050;2022-11-04T15:20:22;17.10;99.90
17859;DHT22;35426;30.698;104.050;2022-11-04T15:23:03;17.20;99.90
17859;DHT22;35426;30.698;104.050;2022-11-04T15:25:46;17.10;99.90
17859;DHT22;35426;30.698;104.050;2022-11-04T15:28:24;17.20;99.90
17859;DHT22;35426;30.698;104.050;2022-11-04T15:31:15;17.10;99.90
17859;DHT22;35426;30.698;104.050;2022-11-04T15:33:53;17.20;99.90
17859;DHT22;35426;30.698;104.050;2022-11-04T15:36:31;17.10;99.90
17859;DHT22;35426;30.698;104.050;2022-11-04T15:39:13;17.10;99.90
17859;DHT22;35426;30.698;104.050;2022-11-04T15:41:49;17.10;99.90
17859;DHT22;35426;30.698;104.050;2022-11-04T15:44:45;17.10;99.90
17859;DHT22;35426;30.698;104.050;2022-11-04T15:47:24;17.20;99.90
17859;DHT22;35426;30.698;104.050;2022-11-04T15:50:14;17.20;99.90
17859;DHT22;35426;30.698;104.050;2022-11-04T15:52:53;17.10;99.90
17859;DHT22;35426;30.698;104.050;2022-11-04T15:55:37;17.10;99.90
17859;DHT22;35426;30.698;104.050;2022-11-04T15:58:14;17.00;99.90
17859;DHT22;35426;30.698;104.050;2022-11-04T16:00:58;17.10;99.90
17859;DHT22;35426;30.698;104.050;2022-11-04T16:03:35;17.20;99.90
17859;DHT22;35426;30.698;104.050;2022-11-04T16:06:10;17.00;99.90
17859;DHT22;35426;30.698;104.050;2022-11-04T16:09:03;17.10;99.90
17859;DHT22;35426;30.698;104.050;2022-11-04T16:11:51;17.10;99.90
17859;DHT22;35426;30.698;104.050;2022-11-04T16:14:35;17.00;99.90
17859;DHT22;35426;30.698;104.050;2022-11-04T16:17:10;17.00;99.90
17859;DHT22;35426;30.698;104.050;2022-11-04T16:19:47;17.00;99.90
17859;DHT22;35426;30.698;104.050;2022-11-04T16:22:26;17.00;99.90
17859;DHT22;35426;30.698;104.050;2022-11-04T16:25:02;16.90;99.90
17859;DHT22;35426;30.698;104.050;2022-11-04T16:27:39;16.90;99.90
17859;DHT22;35426;30.698;104.050;2022-11-04T16:30:18;16.90;99.90
17859;DHT22;35426;30.698;104.050;2022-11-04T16:32:54;16.90;99.90